createdAt,value
2018-05-04T00:02:15.897Z,100681.77
2018-05-04T00:04:45.033Z,100680.63
2018-05-04T00:07:14.198Z,100681.51
2018-05-04T00:09:43.506Z,100679.11
2018-05-04T00:12:13.413Z,100681.39
2018-05-04T00:14:43.481Z,100691.56
2018-05-04T00:17:12.621Z,100688.17
2018-05-04T00:19:43.827Z,100688.91
2018-05-04T00:22:13.745Z,100690.97
2018-05-04T00:24:43.509Z,100686.70
2018-05-04T00:27:12.690Z,100679.42
2018-05-04T00:29:43.868Z,100683.03
2018-05-04T00:32:13.986Z,100682.11
2018-05-04T00:34:43.565Z,100686.05
2018-05-04T00:37:12.693Z,100691.09
2018-05-04T00:39:41.884Z,100690.66
2018-05-04T00:42:11.024Z,100688.77
2018-05-04T00:44:40.165Z,100690.59
2018-05-04T00:47:09.333Z,100684.59
2018-05-04T00:49:39.284Z,100675.76
2018-05-04T00:52:08.435Z,100682.41
2018-05-04T00:54:37.617Z,100683.58
2018-05-04T00:57:06.770Z,100690.66
2018-05-04T00:59:36.685Z,100697.75
2018-05-04T01:02:06.572Z,100693.33
2018-05-04T01:04:40.213Z,100694.89
2018-05-04T01:07:09.371Z,100695.19
2018-05-04T01:09:38.529Z,100687.72
2018-05-04T01:12:07.693Z,100689.56
2018-05-04T01:14:37.813Z,100688.57
2018-05-04T01:17:07.036Z,100695.13
2018-05-04T01:19:36.181Z,100699.73
2018-05-04T01:22:05.334Z,100700.88
2018-05-04T01:24:34.478Z,100708.73
2018-05-04T01:27:03.637Z,100711.66
2018-05-04T01:29:32.764Z,100710.77
2018-05-04T01:32:02.677Z,100710.02
2018-05-04T01:34:32.997Z,100710.30
2018-05-04T01:37:02.161Z,100702.44
2018-05-04T01:39:31.313Z,100710.77
2018-05-04T01:42:00.477Z,100708.05
2018-05-04T01:44:29.641Z,100716.05
2018-05-04T01:46:58.813Z,100710.98
2018-05-04T01:49:27.968Z,100704.56
2018-05-04T01:51:57.382Z,100705.98
2018-05-04T01:54:27.314Z,100697.16
2018-05-04T01:56:56.460Z,100699.69
2018-05-04T01:59:26.609Z,100701.06
2018-05-04T02:01:55.745Z,100700.86
2018-05-04T02:04:24.902Z,100698.00
2018-05-04T02:06:54.849Z,100707.64
2018-05-04T02:09:23.980Z,100698.47
2018-05-04T02:11:53.255Z,100701.52
2018-05-04T02:14:22.350Z,100705.67
2018-05-04T02:16:51.526Z,100706.86
2018-05-04T02:19:20.664Z,100708.89
2018-05-04T02:21:49.851Z,100701.14
2018-05-04T02:24:19.013Z,100705.17
2018-05-04T02:26:48.195Z,100708.07
2018-05-04T02:29:17.363Z,100702.82
2018-05-04T02:31:47.291Z,100701.91
2018-05-04T02:34:17.206Z,100711.45
2018-05-04T02:36:46.364Z,100704.74
2018-05-04T02:39:16.476Z,100707.03
2018-05-04T02:41:46.391Z,100713.58
2018-05-04T02:44:15.562Z,100716.15
2018-05-04T02:46:44.759Z,100715.06
2018-05-04T02:49:14.037Z,100717.34
2018-05-04T02:51:44.299Z,100726.54
2018-05-04T02:54:13.511Z,100726.81
2018-05-04T02:56:44.686Z,100731.42
2018-05-04T02:59:14.615Z,100732.41
2018-05-04T03:01:44.385Z,100733.12
2018-05-04T03:04:13.557Z,100725.95
2018-05-04T03:06:42.729Z,100724.53
2018-05-04T03:09:11.870Z,100722.04
2018-05-04T03:11:41.030Z,100721.55
2018-05-04T03:14:10.209Z,100720.41
2018-05-04T03:16:39.381Z,100723.66
2018-05-04T03:19:08.548Z,100724.64
2018-05-04T03:21:38.477Z,100726.12
2018-05-04T03:24:07.634Z,100734.27
2018-05-04T03:26:36.806Z,100736.13
2018-05-04T03:29:06.711Z,100740.59
2018-05-04T03:31:35.862Z,100742.63
2018-05-04T03:34:05.014Z,100742.42
2018-05-04T03:36:34.945Z,100744.61
2018-05-04T03:39:05.135Z,100750.80
2018-05-04T03:41:34.276Z,100743.47
2018-05-04T03:44:03.605Z,100739.27
2018-05-04T03:46:32.798Z,100745.86
2018-05-04T03:49:01.931Z,100755.24
2018-05-04T03:51:31.096Z,100754.33
2018-05-04T03:54:00.303Z,100755.67
2018-05-04T03:56:29.442Z,100755.93
2018-05-04T03:59:18.013Z,100767.44
2018-05-04T04:15:40.041Z,100767.02
2018-05-04T04:18:09.176Z,100774.86
2018-05-04T04:20:38.362Z,100778.72
2018-05-04T04:23:07.514Z,100780.44
2018-05-04T04:25:36.749Z,100783.80
2018-05-04T04:28:05.884Z,100790.16
2018-05-04T04:30:35.830Z,100787.93
2018-05-04T04:33:04.982Z,100791.69
2018-05-04T04:35:34.208Z,100797.95
2018-05-04T04:38:04.121Z,100794.98
2018-05-04T04:40:34.038Z,100797.02
2018-05-04T04:43:03.186Z,100796.66
2018-05-04T04:45:32.394Z,100800.31
2018-05-04T04:48:02.451Z,100797.08
2018-05-04T04:50:32.397Z,100804.08
2018-05-04T04:53:03.534Z,100804.61
2018-05-04T04:55:32.691Z,100803.08
2018-05-04T04:58:01.861Z,100800.17
2018-05-04T05:00:31.787Z,100806.70
2018-05-04T05:03:01.006Z,100807.64
2018-05-04T05:05:30.158Z,100802.64
2018-05-04T05:07:59.298Z,100811.83
2018-05-04T05:10:28.443Z,100813.52
2018-05-04T05:12:57.604Z,100815.28
2018-05-04T05:15:26.786Z,100817.73
2018-05-04T05:17:55.935Z,100817.96
2018-05-04T05:20:25.090Z,100817.88
2018-05-04T05:22:56.047Z,100816.64
2018-05-04T05:25:25.952Z,100816.25
2018-05-04T05:27:55.123Z,100816.39
2018-05-04T05:30:24.370Z,100814.54
2018-05-04T05:32:53.507Z,100817.07
2018-05-04T05:35:23.043Z,100816.16
2018-05-04T05:37:52.203Z,100821.67
2018-05-04T05:40:21.353Z,100827.25
2018-05-04T05:42:51.279Z,100821.33
2018-05-04T05:45:21.173Z,100814.14
2018-05-04T05:47:50.427Z,100814.91
2018-05-04T05:50:19.615Z,100814.54
2018-05-04T05:52:49.555Z,100817.55
2018-05-04T05:55:18.695Z,100812.83
2018-05-04T05:57:47.864Z,100812.91
2018-05-04T06:00:17.024Z,100812.35
2018-05-04T06:02:46.175Z,100813.25
2018-05-04T06:05:15.331Z,100809.52
2018-05-04T06:07:45.221Z,100809.67
2018-05-04T06:10:15.184Z,100811.70
2018-05-04T06:12:45.339Z,100813.41
2018-05-04T06:15:15.273Z,100803.29
2018-05-04T06:17:45.377Z,100813.98
2018-05-04T06:20:14.543Z,100805.97
2018-05-04T06:22:46.634Z,100807.97
2018-05-04T06:25:15.834Z,100809.13
2018-05-04T06:27:45.332Z,100822.12
2018-05-04T06:30:14.534Z,100816.46
2018-05-04T06:32:43.697Z,100814.23
2018-05-04T06:35:12.883Z,100817.58
2018-05-04T06:37:42.028Z,100818.67
2018-05-04T06:40:11.201Z,100818.95
2018-05-04T06:42:40.364Z,100819.30
2018-05-04T06:45:09.509Z,100820.18
2018-05-04T06:47:39.439Z,100815.11
2018-05-04T06:50:09.567Z,100810.60
2018-05-04T06:52:38.732Z,100806.79
2018-05-04T06:55:08.621Z,100807.84
2018-05-04T06:57:37.810Z,100812.39
2018-05-04T07:00:07.791Z,100816.37
2018-05-04T07:02:36.941Z,100817.21
2018-05-04T07:05:06.121Z,100820.41
2018-05-04T07:07:35.281Z,100819.32
2018-05-04T07:10:04.440Z,100811.67
2018-05-04T07:12:34.361Z,100804.83
2018-05-04T07:15:04.344Z,100812.50
2018-05-04T07:17:33.497Z,100810.56
2018-05-04T07:20:02.640Z,100809.34
2018-05-04T07:22:31.835Z,100814.41
2018-05-04T07:25:01.781Z,100807.54
2018-05-04T07:27:31.701Z,100814.87
2018-05-04T07:30:01.651Z,100813.63
2018-05-04T07:32:30.828Z,100811.31
2018-05-04T07:35:00.749Z,100810.52
2018-05-04T07:37:29.902Z,100802.61
2018-05-04T07:39:59.065Z,100803.03
2018-05-04T07:42:28.239Z,100805.59
2018-05-04T07:44:57.400Z,100803.27
2018-05-04T07:47:26.656Z,100798.76
2018-05-04T07:49:55.823Z,100787.02
2018-05-04T07:52:24.979Z,100792.63
2018-05-04T07:54:54.172Z,100793.02
2018-05-04T07:57:23.372Z,100793.61
2018-05-04T07:59:52.527Z,100800.75
2018-05-04T08:02:21.710Z,100792.28
2018-05-04T08:04:52.642Z,100793.41
2018-05-04T08:07:22.633Z,100798.72
2018-05-04T08:09:51.807Z,100795.49
2018-05-04T08:12:20.947Z,100796.03
2018-05-04T08:14:50.971Z,100790.31
2018-05-04T08:17:20.911Z,100796.00
2018-05-04T08:19:50.073Z,100797.84
2018-05-04T08:22:19.247Z,100800.98
2018-05-04T08:24:48.771Z,100804.95
2018-05-04T08:27:17.883Z,100795.95
2018-05-04T08:29:47.021Z,100793.91
2018-05-04T08:32:16.189Z,100798.51
2018-05-04T08:34:45.353Z,100797.49
2018-05-04T08:37:14.625Z,100798.30
2018-05-04T08:39:43.770Z,100799.78
2018-05-04T08:42:13.685Z,100792.97
2018-05-04T08:44:42.873Z,100793.94
2018-05-04T08:47:12.010Z,100780.91
2018-05-04T08:49:41.212Z,100782.75
2018-05-04T08:52:10.348Z,100785.73
2018-05-04T08:54:39.485Z,100779.28
2018-05-04T08:57:08.797Z,100789.08
2018-05-04T08:59:37.970Z,100786.80
2018-05-04T09:02:07.904Z,100784.60
2018-05-04T09:04:37.054Z,100786.09
2018-05-04T09:07:06.189Z,100782.95
2018-05-04T09:09:35.337Z,100776.42
2018-05-04T09:12:04.498Z,100771.38
2018-05-04T09:14:33.634Z,100774.19
2018-05-04T09:17:03.563Z,100773.56
2018-05-04T09:19:32.715Z,100768.59
2018-05-04T09:22:01.866Z,100767.47
2018-05-04T09:24:31.789Z,100772.97
2018-05-04T09:27:01.726Z,100768.84
2018-05-04T09:29:30.870Z,100767.81
2018-05-04T09:32:00.811Z,100768.02
2018-05-04T09:34:30.726Z,100758.42
2018-05-04T09:37:00.650Z,100760.34
2018-05-04T09:39:30.660Z,100756.39
2018-05-04T09:42:00.583Z,100760.21
2018-05-04T09:44:30.501Z,100760.77
2018-05-04T09:46:59.644Z,100743.80
2018-05-04T09:49:28.846Z,100751.91
2018-05-04T09:51:58.053Z,100752.30
2018-05-04T09:54:28.209Z,100748.08
2018-05-04T09:56:58.151Z,100749.44
2018-05-04T09:59:27.367Z,100749.61
2018-05-04T10:01:56.523Z,100742.15
2018-05-04T10:04:25.733Z,100741.15
2018-05-04T10:06:56.566Z,100734.45
2018-05-04T10:09:25.743Z,100732.02
2018-05-04T10:11:54.889Z,100733.66
2018-05-04T10:14:24.022Z,100739.17
2018-05-04T10:16:53.956Z,100734.88
2018-05-04T10:19:24.015Z,100729.02
2018-05-04T10:21:53.257Z,100731.83
2018-05-04T10:24:22.362Z,100725.10
2018-05-04T10:26:51.651Z,100718.67
2018-05-04T10:29:22.518Z,100717.09
2018-05-04T10:31:51.729Z,100721.58
2018-05-04T10:34:21.653Z,100725.45
2018-05-04T10:36:51.646Z,100713.55
2018-05-04T10:39:20.793Z,100702.22
2018-05-04T10:41:49.955Z,100706.67
2018-05-04T10:44:19.136Z,100704.03
2018-05-04T10:46:48.296Z,100705.66
2018-05-04T10:49:18.235Z,100713.98
2018-05-04T10:51:47.406Z,100703.16
2018-05-04T10:54:16.598Z,100704.17
2018-05-04T10:56:46.639Z,100695.75
2018-05-04T10:59:17.621Z,100693.88
2018-05-04T11:01:46.793Z,100681.52
2018-05-04T11:04:16.924Z,100694.69
2018-05-04T11:06:46.664Z,100699.83
2018-05-04T11:09:15.840Z,100694.77
2018-05-04T11:11:45.006Z,100698.36
2018-05-04T11:14:14.198Z,100694.61
2018-05-04T11:16:44.114Z,100692.13
2018-05-04T11:19:14.019Z,100688.27
2018-05-04T11:21:43.947Z,100680.73
2018-05-04T11:24:14.018Z,100680.32
2018-05-04T11:26:44.675Z,100678.96
2018-05-04T11:29:13.926Z,100679.62
2018-05-04T11:31:43.073Z,100675.23
2018-05-04T11:34:13.044Z,100672.88
2018-05-04T11:36:42.205Z,100672.82
2018-05-04T11:39:11.349Z,100674.23
2018-05-04T11:41:40.512Z,100674.09
2018-05-04T11:44:09.663Z,100668.70
2018-05-04T11:46:38.818Z,100673.97
2018-05-04T11:49:08.050Z,100667.33
2018-05-04T11:51:38.019Z,100669.03
2018-05-04T11:54:07.234Z,100669.39
2018-05-04T11:56:36.390Z,100680.79
2018-05-04T11:59:06.315Z,100679.66
2018-05-04T12:01:35.982Z,100678.28
2018-05-04T12:04:05.119Z,100675.88
2018-05-04T12:06:34.329Z,100679.25
2018-05-04T12:09:03.509Z,100676.16
2018-05-04T12:11:32.674Z,100681.08
2018-05-04T12:14:02.439Z,100682.12
2018-05-04T12:16:31.690Z,100688.06
2018-05-04T12:19:01.566Z,100682.41
2018-05-04T12:21:30.778Z,100682.23
2018-05-04T12:24:00.687Z,100690.87
2018-05-04T12:26:29.860Z,100675.98
2018-05-04T12:28:59.942Z,100677.77
2018-05-04T12:31:29.119Z,100693.03
2018-05-04T12:33:58.308Z,100693.08
2018-05-04T12:36:27.519Z,100689.92
2018-05-04T12:38:56.677Z,100689.89
2018-05-04T12:41:25.871Z,100686.62
2018-05-04T12:43:55.033Z,100687.48
2018-05-04T12:46:25.692Z,100687.38
2018-05-04T12:48:54.894Z,100686.67
2018-05-04T12:51:24.083Z,100671.66
2018-05-04T12:53:53.237Z,100673.49
2018-05-04T12:56:22.400Z,100681.50
2018-05-04T12:58:52.355Z,100681.27
2018-05-04T13:01:21.503Z,100676.73
2018-05-04T13:03:50.676Z,100681.91
2018-05-04T13:06:22.458Z,100678.27
2018-05-04T13:08:53.537Z,100682.23
2018-05-04T13:11:24.342Z,100672.95
2018-05-04T13:13:53.502Z,100675.62
2018-05-04T13:16:24.457Z,100672.66
2018-05-04T13:18:53.657Z,100671.86
2018-05-04T13:21:22.854Z,100662.54
2018-05-04T13:23:52.002Z,100660.19
2018-05-04T13:26:24.218Z,100664.97
2018-05-04T13:28:53.362Z,100652.16
2018-05-04T13:31:22.519Z,100644.08
2018-05-04T13:33:51.715Z,100650.27
2018-05-04T13:36:20.902Z,100652.31
2018-05-04T13:38:50.074Z,100645.38
2018-05-04T13:41:20.971Z,100645.29
2018-05-04T13:43:50.157Z,100644.45
2018-05-04T13:46:19.358Z,100644.91
2018-05-04T13:48:48.514Z,100631.43
2018-05-04T13:51:18.762Z,100637.70
2018-05-04T13:53:47.807Z,100635.44
2018-05-04T13:56:16.984Z,100636.34
2018-05-04T13:58:47.622Z,100641.11
2018-05-04T14:01:17.768Z,100630.14
2018-05-04T14:03:47.421Z,100638.36
2018-05-04T14:06:16.574Z,100634.98
2018-05-04T14:08:45.781Z,100628.38
2018-05-04T14:11:15.720Z,100626.95
2018-05-04T14:13:44.930Z,100629.03
2018-05-04T14:16:14.108Z,100628.92
2018-05-04T14:18:43.355Z,100625.37
2018-05-04T14:21:12.555Z,100627.98
2018-05-04T14:23:41.739Z,100625.66
2018-05-04T14:26:10.933Z,100617.84
2018-05-04T14:28:41.056Z,100628.06
2018-05-04T14:31:10.264Z,100616.14
2018-05-04T14:33:39.410Z,100612.41
2018-05-04T14:36:09.337Z,100618.02
2018-05-04T14:38:38.486Z,100618.48
2018-05-04T14:41:07.707Z,100618.00
2018-05-04T14:43:37.647Z,100624.73
2018-05-04T14:46:06.814Z,100622.72
2018-05-04T14:48:39.477Z,100623.23
2018-05-04T14:51:08.651Z,100621.81
2018-05-04T14:53:37.945Z,100624.05
2018-05-04T14:56:07.145Z,100629.28
2018-05-04T14:58:38.363Z,100628.37
2018-05-04T15:01:08.319Z,100627.91
2018-05-04T15:03:37.543Z,100624.67
2018-05-04T15:06:06.736Z,100626.94
2018-05-04T15:08:36.519Z,100633.95
2018-05-04T15:11:05.717Z,100626.89
2018-05-04T15:13:34.862Z,100624.31
2018-05-04T15:16:04.833Z,100628.53
2018-05-04T15:18:36.158Z,100626.38
2018-05-04T15:21:05.312Z,100628.66
2018-05-04T15:23:34.468Z,100626.00
2018-05-04T15:26:03.631Z,100626.06
2018-05-04T15:28:35.501Z,100624.73
2018-05-04T15:31:04.742Z,100626.69
2018-05-04T15:33:34.668Z,100617.89
2018-05-04T15:36:03.824Z,100627.59
2018-05-04T15:38:34.344Z,100625.67
2018-05-04T15:41:03.498Z,100620.50
2018-05-04T15:43:32.753Z,100616.20
2018-05-04T15:46:01.955Z,100626.17
2018-05-04T15:48:37.494Z,100624.88
2018-05-04T15:51:11.951Z,100626.00
2018-05-04T15:53:41.935Z,100624.58
2018-05-04T15:56:11.083Z,100624.38
2018-05-04T15:58:40.994Z,100620.56
2018-05-04T16:01:10.953Z,100619.91
2018-05-04T16:03:40.562Z,100611.34
2018-05-04T16:06:09.850Z,100623.64
2018-05-04T16:08:38.978Z,100618.09
2018-05-04T16:11:09.704Z,100614.41
2018-05-04T16:13:38.922Z,100616.20
2018-05-04T16:16:08.074Z,100620.78
2018-05-04T16:18:37.248Z,100638.57
2018-05-04T16:21:07.190Z,100634.33
2018-05-04T16:23:36.377Z,100636.59
2018-05-04T16:26:05.992Z,100634.99
2018-05-04T16:28:35.206Z,100639.16
2018-05-04T16:31:04.389Z,100639.19
2018-05-04T16:33:33.911Z,100633.67
2018-05-04T16:36:03.105Z,100632.97
2018-05-04T16:38:32.347Z,100634.92
2018-05-04T16:41:01.585Z,100638.17
2018-05-04T16:43:30.730Z,100634.81
2018-05-04T16:45:59.891Z,100644.16
2018-05-04T16:48:34.528Z,100645.47
2018-05-04T16:51:04.532Z,100650.86
2018-05-04T16:53:34.302Z,100650.75
2018-05-04T16:56:04.289Z,100645.81
2018-05-04T16:58:34.310Z,100655.50
2018-05-04T17:01:03.551Z,100649.56
2018-05-04T17:03:32.726Z,100656.82
2018-05-04T17:06:02.632Z,100654.00
2018-05-04T17:08:31.778Z,100652.14
2018-05-04T17:11:00.944Z,100664.49
2018-05-04T17:13:30.866Z,100662.67
2018-05-04T17:16:00.798Z,100660.81
2018-05-04T17:18:30.067Z,100657.05
2018-05-04T17:20:59.585Z,100667.30
2018-05-04T17:23:28.785Z,100672.98
2018-05-04T17:25:58.304Z,100663.42
2018-05-04T17:28:28.380Z,100670.89
2018-05-04T17:31:02.203Z,100672.73
2018-05-04T17:33:31.395Z,100674.30
2018-05-04T17:36:03.463Z,100675.89
2018-05-04T17:38:34.307Z,100677.87
2018-05-04T17:41:04.294Z,100683.00
2018-05-04T17:43:34.250Z,100686.73
2018-05-04T17:46:03.444Z,100691.06
2018-05-04T17:48:34.092Z,100693.12
2018-05-04T17:51:04.029Z,100694.28
2018-05-04T17:53:33.195Z,100698.00
2018-05-04T17:56:02.361Z,100696.33
2018-05-04T17:58:32.310Z,100703.70
2018-05-04T18:01:02.426Z,100714.01
2018-05-04T18:03:31.609Z,100710.52
2018-05-04T18:06:00.758Z,100707.22
2018-05-04T18:08:29.947Z,100712.15
2018-05-04T18:11:00.033Z,100710.06
2018-05-04T18:13:29.210Z,100715.81
2018-05-04T18:15:59.134Z,100722.66
2018-05-04T18:18:29.871Z,100731.53
2018-05-04T18:20:59.013Z,100727.06
2018-05-04T18:23:28.196Z,100734.65
2018-05-04T18:25:57.391Z,100735.19
2018-05-04T18:28:26.556Z,100739.89
2018-05-04T18:30:56.473Z,100740.65
2018-05-04T18:33:26.622Z,100743.98
2018-05-04T18:35:55.758Z,100750.11
2018-05-04T18:38:25.019Z,100750.64
2018-05-04T18:40:54.090Z,100753.64
2018-05-04T18:43:23.530Z,100760.97
2018-05-04T18:45:52.706Z,100760.25
2018-05-04T18:48:21.893Z,100762.90
2018-05-04T18:50:51.046Z,100760.75
2018-05-04T18:53:21.901Z,100766.75
2018-05-04T18:55:51.838Z,100772.68
2018-05-04T18:58:21.906Z,100774.67
2018-05-04T19:00:51.076Z,100772.48
2018-05-04T19:03:22.194Z,100776.17
2018-05-04T19:05:52.105Z,100774.41
2018-05-04T19:08:22.218Z,100781.98
2018-05-04T19:10:52.175Z,100782.80
2018-05-04T19:13:22.302Z,100787.34
2018-05-04T19:15:51.442Z,100789.20
2018-05-04T19:18:21.393Z,100794.56
2018-05-04T19:20:53.131Z,100800.55
2018-05-04T19:23:23.648Z,100804.85
2018-05-04T19:25:52.796Z,100801.11
2018-05-04T19:28:22.869Z,100806.11
2018-05-04T19:30:52.818Z,100810.92
2018-05-04T19:33:21.971Z,100814.68
2018-05-04T19:35:51.920Z,100817.84
2018-05-04T19:38:21.072Z,100831.70
2018-05-04T19:40:50.241Z,100820.94
2018-05-04T19:43:19.409Z,100832.31
2018-05-04T19:45:48.605Z,100838.17
2018-05-04T19:48:17.760Z,100833.62
2018-05-04T19:50:49.082Z,100840.63
2018-05-04T19:53:18.246Z,100839.91
2018-05-04T19:55:48.392Z,100841.33
2018-05-04T19:58:17.562Z,100850.04
2018-05-04T20:00:46.736Z,100858.18
2018-05-04T20:03:15.870Z,100858.36
2018-05-04T20:05:45.038Z,100858.97
2018-05-04T20:08:14.975Z,100863.94
2018-05-04T20:10:44.129Z,100862.35
2018-05-04T20:13:13.302Z,100866.34
2018-05-04T20:15:42.481Z,100859.80
2018-05-04T20:18:11.653Z,100865.64
2018-05-04T20:20:41.602Z,100872.55
2018-05-04T20:23:11.225Z,100877.38
2018-05-04T20:25:40.360Z,100872.02
2018-05-04T20:28:10.979Z,100873.70
2018-05-04T20:30:40.162Z,100874.65
2018-05-04T20:33:09.314Z,100880.63
2018-05-04T20:35:38.496Z,100873.72
2018-05-04T20:38:08.985Z,100884.77
2018-05-04T20:40:38.190Z,100880.42
2018-05-04T20:43:08.853Z,100883.64
2018-05-04T20:45:38.830Z,100887.74
2018-05-04T20:48:07.972Z,100897.85
2018-05-04T20:50:37.148Z,100908.69
2018-05-04T20:53:07.100Z,100902.77
2018-05-04T20:55:36.247Z,100907.59
2018-05-04T20:58:06.572Z,100905.47
2018-05-04T21:00:35.707Z,100902.88
2018-05-04T21:03:04.905Z,100903.22
2018-05-04T21:05:34.070Z,100898.86
2018-05-04T21:08:03.833Z,100906.31
2018-05-04T21:10:33.040Z,100905.08
2018-05-04T21:13:02.227Z,100909.19
2018-05-04T21:15:31.351Z,100916.50
2018-05-04T21:18:00.490Z,100919.37
2018-05-04T21:20:29.679Z,100920.77
2018-05-04T21:22:59.608Z,100927.30
2018-05-04T21:25:29.272Z,100927.97
2018-05-04T21:27:58.398Z,100931.38
2018-05-04T21:30:28.355Z,100936.29
2018-05-04T21:32:57.567Z,100940.32
2018-05-04T21:35:27.483Z,100936.29
2018-05-04T21:37:56.631Z,100931.47
2018-05-04T21:40:26.566Z,100943.44
2018-05-04T21:42:55.721Z,100943.58
2018-05-04T21:45:24.891Z,100946.38
2018-05-04T21:47:54.084Z,100952.78
2018-05-04T21:50:23.239Z,100960.56
2018-05-04T21:52:52.422Z,100968.19
2018-05-04T21:55:22.345Z,100964.25
2018-05-04T21:57:52.295Z,100965.24
2018-05-04T22:00:21.542Z,100960.02
2018-05-04T22:02:50.707Z,100957.26
2018-05-04T22:05:19.845Z,100962.17
2018-05-04T22:07:49.161Z,100967.89
2018-05-04T22:10:19.107Z,100960.85
2018-05-04T22:12:49.136Z,100965.52
2018-05-04T22:15:18.450Z,100964.91
2018-05-04T22:17:47.586Z,100964.84
2018-05-04T22:20:17.654Z,100967.11
2018-05-04T22:22:46.793Z,100966.44
2018-05-04T22:25:15.946Z,100962.89
2018-05-04T22:27:45.209Z,100961.33
2018-05-04T22:30:15.141Z,100964.78
2018-05-04T22:32:44.316Z,100967.03
2018-05-04T22:35:14.237Z,100964.81
2018-05-04T22:37:43.374Z,100974.70
2018-05-04T22:40:12.550Z,100973.31
2018-05-04T22:42:41.709Z,100976.33
2018-05-04T22:45:10.862Z,100981.41
2018-05-04T22:47:40.054Z,100975.05
2018-05-04T22:50:09.206Z,100974.48
2018-05-04T22:52:39.128Z,100977.14
2018-05-04T22:55:09.043Z,100984.48
2018-05-04T22:57:38.962Z,100986.15
2018-05-04T23:00:08.877Z,100985.15
2018-05-04T23:02:38.794Z,100984.41
2018-05-04T23:05:07.945Z,100990.27
2018-05-04T23:07:37.118Z,100994.03
2018-05-04T23:10:06.256Z,100992.19
2018-05-04T23:12:35.418Z,100996.22
2018-05-04T23:15:05.322Z,100996.42
2018-05-04T23:17:34.525Z,100984.27
2018-05-04T23:20:03.677Z,100997.04
2018-05-04T23:22:33.587Z,100994.00
2018-05-04T23:25:03.505Z,100996.07
2018-05-04T23:27:33.439Z,100988.44
2018-05-04T23:30:02.590Z,100992.21
2018-05-04T23:32:31.727Z,100996.59
2018-05-04T23:35:01.663Z,101000.14
2018-05-04T23:37:30.809Z,100995.14
2018-05-04T23:40:00.750Z,101000.95
2018-05-04T23:42:29.907Z,100998.09
2018-05-04T23:44:59.060Z,101009.69
2018-05-04T23:47:28.264Z,101008.53
2018-05-04T23:49:57.416Z,101006.46
2018-05-04T23:52:26.582Z,101002.42
2018-05-04T23:54:55.735Z,101009.84
2018-05-04T23:57:25.706Z,101018.45
2018-05-04T23:59:54.830Z,101016.53
